createdAt,value
2019-05-02T00:00:49.566Z,16.13
2019-05-02T00:03:18.452Z,14.47
2019-05-02T00:05:46.968Z,14.57
2019-05-02T00:08:16.076Z,15.50
2019-05-02T00:10:45.703Z,14.90
2019-05-02T00:13:14.137Z,15.87
2019-05-02T00:15:42.573Z,16.27
2019-05-02T00:18:11.171Z,17.57
2019-05-02T00:20:39.687Z,15.83
2019-05-02T00:23:08.622Z,17.77
2019-05-02T00:25:38.605Z,18.87
2019-05-02T00:28:07.685Z,20.03
2019-05-02T00:30:37.452Z,19.90
2019-05-02T00:33:05.972Z,20.87
2019-05-02T00:35:34.414Z,21.63
2019-05-02T00:38:03.889Z,19.90
2019-05-02T00:40:32.346Z,23.40
2019-05-02T00:43:00.915Z,25.77
2019-05-02T00:45:29.364Z,25.97
2019-05-02T00:47:59.481Z,25.20
2019-05-02T00:50:29.605Z,25.23
2019-05-02T00:52:58.022Z,27.13
2019-05-02T00:55:29.003Z,27.97
2019-05-02T00:57:56.960Z,26.97
2019-05-02T01:00:25.533Z,28.63
2019-05-02T01:03:04.473Z,28.90
2019-05-02T01:05:33.707Z,27.70
2019-05-02T01:08:03.168Z,27.73
2019-05-02T01:10:31.659Z,29.93
2019-05-02T01:13:00.083Z,28.47
2019-05-02T01:15:28.586Z,30.53
2019-05-02T01:18:01.001Z,31.70
2019-05-02T01:20:27.915Z,31.73
2019-05-02T01:22:57.346Z,31.93
2019-05-02T01:25:25.823Z,32.30
2019-05-02T01:28:12.641Z,33.23
2019-05-02T01:30:59.141Z,34.00
2019-05-02T01:33:29.206Z,34.97
2019-05-02T01:36:01.692Z,35.60
2019-05-02T01:38:34.045Z,36.47
2019-05-02T01:41:02.516Z,38.87
2019-05-02T01:43:31.793Z,38.73
2019-05-02T01:46:00.383Z,39.47
2019-05-02T01:48:29.239Z,40.53
2019-05-02T01:50:57.746Z,40.20
2019-05-02T01:53:29.448Z,41.10
2019-05-02T01:55:57.389Z,42.67
2019-05-02T01:58:26.534Z,41.63
2019-05-02T02:00:55.045Z,43.80
2019-05-02T02:03:23.568Z,44.63
2019-05-02T02:05:52.054Z,42.77
2019-05-02T02:08:20.493Z,43.10
2019-05-02T02:10:50.794Z,43.90
2019-05-02T02:13:19.401Z,47.17
2019-05-02T02:15:47.805Z,47.10
2019-05-02T02:18:17.562Z,48.20
2019-05-02T02:21:04.269Z,49.53
2019-05-02T02:23:36.775Z,48.33
2019-05-02T02:26:25.085Z,49.63
2019-05-02T02:28:53.676Z,49.43
2019-05-02T02:31:22.721Z,51.33
2019-05-02T02:33:51.256Z,52.67
2019-05-02T02:36:31.291Z,52.13
2019-05-02T02:38:51.626Z,54.43
2019-05-02T02:41:20.055Z,54.67
2019-05-02T02:43:54.709Z,52.13
2019-05-02T02:46:21.944Z,55.03
2019-05-02T02:48:50.376Z,56.33
2019-05-02T02:51:23.802Z,56.10
2019-05-02T02:53:49.858Z,55.73
2019-05-02T02:56:18.279Z,54.97
2019-05-02T02:58:48.060Z,56.07
2019-05-02T03:01:27.564Z,56.87
2019-05-02T03:03:46.991Z,55.60
2019-05-02T03:06:15.478Z,56.27
2019-05-02T03:08:48.746Z,56.63
2019-05-02T03:11:22.378Z,55.23
2019-05-02T03:13:52.703Z,54.17
2019-05-02T03:16:22.425Z,55.00
2019-05-02T03:18:50.982Z,54.23
2019-05-02T03:21:22.258Z,55.53
2019-05-02T03:24:01.349Z,55.23
2019-05-02T03:26:19.935Z,53.83
2019-05-02T03:28:57.555Z,55.13
2019-05-02T03:31:25.036Z,52.73
2019-05-02T03:33:56.249Z,55.33
2019-05-02T03:36:29.065Z,53.60
2019-05-02T03:38:49.597Z,53.67
2019-05-02T03:41:21.291Z,55.77
2019-05-02T03:43:49.377Z,55.47
2019-05-02T03:46:20.556Z,55.10
2019-05-02T03:48:48.404Z,53.20
2019-05-02T03:51:21.641Z,55.03
2019-05-02T03:53:47.198Z,52.03
2019-05-02T03:56:15.706Z,54.47
2019-05-02T03:58:48.542Z,54.90
2019-05-02T04:01:14.952Z,54.60
2019-05-02T04:03:43.952Z,54.87
2019-05-02T04:06:13.852Z,53.93
2019-05-02T04:08:44.225Z,56.00
2019-05-02T04:11:19.285Z,56.00
2019-05-02T04:13:48.829Z,53.57
2019-05-02T04:16:18.051Z,54.77
2019-05-02T04:18:54.729Z,55.97
2019-05-02T04:21:24.473Z,56.10
2019-05-02T04:23:48.395Z,54.77
2019-05-02T04:26:18.116Z,57.03
2019-05-02T04:28:51.799Z,57.10
2019-05-02T04:31:16.749Z,55.73
2019-05-02T04:33:45.261Z,58.47
2019-05-02T04:36:17.526Z,56.83
2019-05-02T04:38:47.936Z,56.87
2019-05-02T04:41:18.941Z,57.87
2019-05-02T04:43:54.421Z,57.63
2019-05-02T04:46:26.958Z,60.20
2019-05-02T04:48:52.858Z,57.27
2019-05-02T04:51:21.672Z,58.40
2019-05-02T04:53:50.236Z,59.43
2019-05-02T04:56:18.826Z,58.70
2019-05-02T04:58:49.525Z,59.43
2019-05-02T05:01:17.803Z,58.90
2019-05-02T05:03:54.410Z,60.43
2019-05-02T05:06:18.819Z,60.33
2019-05-02T05:08:48.349Z,59.63
2019-05-02T05:11:21.230Z,58.43
2019-05-02T05:13:47.897Z,57.80
2019-05-02T05:16:18.676Z,58.10
2019-05-02T05:18:49.299Z,57.53
2019-05-02T05:21:17.919Z,59.07
2019-05-02T05:23:51.858Z,58.50
2019-05-02T05:26:21.402Z,60.30
2019-05-02T05:28:49.809Z,58.80
2019-05-02T05:31:23.979Z,62.93
2019-05-02T05:33:48.418Z,59.87
2019-05-02T05:36:19.820Z,57.10
2019-05-02T05:38:47.804Z,59.30
2019-05-02T05:41:21.246Z,57.77
2019-05-02T05:43:50.055Z,59.77
2019-05-02T05:46:17.855Z,58.30
2019-05-02T05:48:47.624Z,59.03
2019-05-02T05:51:20.415Z,59.70
2019-05-02T05:53:47.832Z,58.33
2019-05-02T05:56:18.070Z,58.63
2019-05-02T05:58:48.085Z,61.23
2019-05-02T06:01:20.088Z,60.97
2019-05-02T06:03:47.410Z,60.77
2019-05-02T06:06:22.804Z,59.30
2019-05-02T06:08:49.307Z,59.13
2019-05-02T06:11:20.096Z,61.60
2019-05-02T06:13:48.889Z,60.53
2019-05-02T06:16:16.754Z,61.03
2019-05-02T06:18:45.158Z,61.27
2019-05-02T06:21:13.590Z,58.03
2019-05-02T06:23:42.133Z,60.30
2019-05-02T06:26:13.455Z,60.47
2019-05-02T06:28:41.658Z,58.13
2019-05-02T06:31:10.943Z,60.93
2019-05-02T06:33:39.373Z,59.83
2019-05-02T06:36:07.874Z,60.30
2019-05-02T06:38:36.360Z,57.37
2019-05-02T06:41:04.819Z,60.07
2019-05-02T06:43:33.314Z,58.67
2019-05-02T06:46:14.893Z,58.90
2019-05-02T06:48:31.900Z,58.63
2019-05-02T06:51:00.435Z,60.80
2019-05-02T06:53:28.849Z,61.23
2019-05-02T06:55:57.260Z,57.27
2019-05-02T06:58:25.683Z,59.70
2019-05-02T07:00:58.329Z,59.47
2019-05-02T07:03:24.301Z,57.63
2019-05-02T07:05:58.691Z,57.37
2019-05-02T07:08:23.002Z,59.10
2019-05-02T07:10:51.467Z,66.23
2019-05-02T07:13:19.884Z,59.13
2019-05-02T07:15:58.953Z,58.63
2019-05-02T07:18:34.910Z,58.53
2019-05-02T07:21:05.175Z,55.50
2019-05-02T07:23:33.742Z,58.50
2019-05-02T07:26:02.163Z,62.57
2019-05-02T07:28:30.611Z,60.90
2019-05-02T07:30:59.482Z,56.93
2019-05-02T07:33:32.379Z,59.50
2019-05-02T07:36:02.007Z,58.83
2019-05-02T07:38:30.422Z,58.53
2019-05-02T07:40:59.074Z,61.20
2019-05-02T07:43:28.086Z,61.57
2019-05-02T07:45:56.518Z,61.57
2019-05-02T07:48:24.942Z,59.47
2019-05-02T07:50:56.549Z,60.00
2019-05-02T07:53:25.241Z,61.90
2019-05-02T07:55:53.660Z,60.40
2019-05-02T07:58:22.118Z,60.40
2019-05-02T08:00:50.540Z,59.63
2019-05-02T08:03:18.974Z,63.87
2019-05-02T08:05:47.396Z,62.40
2019-05-02T08:08:15.868Z,58.93
2019-05-02T08:10:44.323Z,59.10
2019-05-02T08:13:17.449Z,58.67
2019-05-02T08:15:45.678Z,58.33
2019-05-02T08:18:13.224Z,61.33
2019-05-02T08:20:41.632Z,62.97
2019-05-02T08:23:10.065Z,60.70
2019-05-02T08:25:41.435Z,61.93
2019-05-02T08:28:15.871Z,57.47
2019-05-02T08:30:42.116Z,60.50
2019-05-02T08:33:10.565Z,59.13
2019-05-02T08:35:38.972Z,60.37
2019-05-02T08:38:07.428Z,61.03
2019-05-02T08:40:35.855Z,62.63
2019-05-02T08:43:09.359Z,56.53
2019-05-02T08:45:38.170Z,57.67
2019-05-02T08:48:06.426Z,56.93
2019-05-02T08:50:35.232Z,57.53
2019-05-02T08:53:03.734Z,55.23
2019-05-02T08:55:32.243Z,56.97
2019-05-02T08:58:00.670Z,56.70
2019-05-02T09:00:32.256Z,56.27
2019-05-02T09:03:02.718Z,56.83
2019-05-02T09:05:29.462Z,56.53
2019-05-02T09:07:57.860Z,59.73
2019-05-02T09:10:26.326Z,55.90
2019-05-02T09:12:54.764Z,55.83
2019-05-02T09:15:23.242Z,55.13
2019-05-02T09:17:56.309Z,58.10
2019-05-02T09:20:23.677Z,56.93
2019-05-02T09:22:55.918Z,55.47
2019-05-02T09:25:22.918Z,53.70
2019-05-02T09:27:52.639Z,55.33
2019-05-02T09:30:22.784Z,55.27
2019-05-02T09:32:52.144Z,55.43
2019-05-02T09:35:22.943Z,57.07
2019-05-02T09:37:52.272Z,52.80
2019-05-02T09:40:22.206Z,53.60
2019-05-02T09:42:53.260Z,50.50
2019-05-02T09:45:33.422Z,51.37
2019-05-02T09:48:06.917Z,47.73
2019-05-02T09:50:31.567Z,55.73
2019-05-02T09:52:59.060Z,55.00
2019-05-02T09:55:27.503Z,50.97
2019-05-02T09:57:56.009Z,48.37
2019-05-02T10:00:35.878Z,53.23
2019-05-02T10:03:02.693Z,52.87
2019-05-02T10:05:32.250Z,50.07
2019-05-02T10:08:03.219Z,53.57
2019-05-02T10:10:32.454Z,50.90
2019-05-02T10:13:02.754Z,50.53
2019-05-02T10:15:32.759Z,49.07
2019-05-02T10:18:08.759Z,52.73
2019-05-02T10:20:36.218Z,50.83
2019-05-02T10:23:02.288Z,51.27
2019-05-02T10:25:38.458Z,51.63
2019-05-02T10:28:02.159Z,51.27
2019-05-02T10:30:35.600Z,50.53
2019-05-02T10:33:04.724Z,50.30
2019-05-02T10:35:40.672Z,45.13
2019-05-02T10:38:17.564Z,44.80
2019-05-02T10:40:39.829Z,43.10
2019-05-02T10:43:08.339Z,42.37
2019-05-02T10:45:37.944Z,42.07
2019-05-02T10:48:06.549Z,42.83
2019-05-02T10:50:36.663Z,46.03
2019-05-02T10:53:11.236Z,42.73
2019-05-02T10:55:35.387Z,45.80
2019-05-02T10:58:03.867Z,42.97
2019-05-02T11:00:34.007Z,44.63
2019-05-02T11:03:04.844Z,43.63
2019-05-02T11:05:45.184Z,43.23
2019-05-02T11:08:13.546Z,41.93
2019-05-02T11:10:42.328Z,43.07
2019-05-02T11:13:15.441Z,43.87
2019-05-02T11:15:46.694Z,43.40
2019-05-02T11:18:15.961Z,42.43
2019-05-02T11:20:44.629Z,38.83
2019-05-02T11:23:13.169Z,39.00
2019-05-02T11:25:42.108Z,37.50
2019-05-02T11:28:12.461Z,37.77
2019-05-02T11:30:41.987Z,35.30
2019-05-02T11:33:13.335Z,35.43
2019-05-02T11:35:48.551Z,30.90
2019-05-02T11:38:13.263Z,29.20
2019-05-02T11:40:42.521Z,27.80
2019-05-02T11:43:11.558Z,28.37
2019-05-02T11:45:40.197Z,27.03
2019-05-02T11:48:11.280Z,26.67
2019-05-02T11:50:38.797Z,26.63
2019-05-02T11:53:22.042Z,29.97
2019-05-02T11:55:37.541Z,27.90
2019-05-02T11:58:08.170Z,24.97
2019-05-02T12:00:39.616Z,24.37
2019-05-02T12:03:12.690Z,25.27
2019-05-02T12:05:42.665Z,25.23
2019-05-02T12:08:12.190Z,23.63
2019-05-02T12:10:42.241Z,23.80
2019-05-02T12:13:15.578Z,27.57
2019-05-02T12:15:43.942Z,23.60
2019-05-02T12:18:12.088Z,24.97
2019-05-02T12:20:42.533Z,23.67
2019-05-02T12:23:12.780Z,19.87
2019-05-02T12:25:42.313Z,19.33
2019-05-02T12:28:11.993Z,18.97
2019-05-02T12:30:41.857Z,18.00
2019-05-02T12:33:12.273Z,18.43
2019-05-02T12:35:43.025Z,18.60
2019-05-02T12:38:12.176Z,18.33
2019-05-02T12:40:42.175Z,17.30
2019-05-02T12:43:12.080Z,16.70
2019-05-02T12:45:42.091Z,18.70
2019-05-02T12:48:12.850Z,18.07
2019-05-02T12:50:41.819Z,17.67
2019-05-02T12:53:12.409Z,16.37
2019-05-02T12:55:42.132Z,17.80
2019-05-02T12:58:12.544Z,17.70
2019-05-02T13:00:43.077Z,16.07
2019-05-02T13:03:15.857Z,16.77
2019-05-02T13:05:44.299Z,17.13
2019-05-02T13:08:12.774Z,16.37
2019-05-02T13:10:48.963Z,15.73
2019-05-02T13:13:18.600Z,15.53
2019-05-02T13:15:47.125Z,15.37
2019-05-02T13:18:18.730Z,15.27
2019-05-02T13:20:46.082Z,13.30
2019-05-02T13:23:22.587Z,13.70
2019-05-02T13:25:51.817Z,14.63
2019-05-02T13:28:24.119Z,14.87
2019-05-02T13:30:55.045Z,13.30
2019-05-02T13:33:34.428Z,16.00
2019-05-02T13:35:59.693Z,16.23
2019-05-02T13:38:28.216Z,16.03
2019-05-02T13:40:57.091Z,14.37
2019-05-02T13:43:27.173Z,14.63
2019-05-02T13:46:12.680Z,15.80
2019-05-02T13:48:42.889Z,15.23
2019-05-02T13:51:11.935Z,14.63
2019-05-02T13:53:42.574Z,15.87
2019-05-02T13:56:18.663Z,16.73
2019-05-02T13:58:47.129Z,15.80
2019-05-02T14:01:16.274Z,13.57
2019-05-02T14:03:44.719Z,12.60
2019-05-02T14:06:13.199Z,14.20
2019-05-02T14:08:43.271Z,13.07
2019-05-02T14:11:13.356Z,15.97
2019-05-02T14:13:42.539Z,16.80
2019-05-02T14:16:12.189Z,16.87
2019-05-02T14:18:42.104Z,17.47
2019-05-02T14:21:12.556Z,17.33
2019-05-02T14:23:42.006Z,17.43
2019-05-02T14:26:11.697Z,17.30
2019-05-02T14:28:40.275Z,17.50
2019-05-02T14:31:08.727Z,17.13
2019-05-02T14:33:38.820Z,17.63
2019-05-02T14:36:07.269Z,16.27
2019-05-02T14:38:35.736Z,17.63
2019-05-02T14:41:12.644Z,18.27
2019-05-02T14:43:53.122Z,16.33
2019-05-02T14:46:22.582Z,16.90
2019-05-02T14:48:52.246Z,16.93
2019-05-02T14:51:26.053Z,17.03
2019-05-02T14:53:52.594Z,17.07
2019-05-02T14:56:37.543Z,18.50
2019-05-02T14:59:09.286Z,16.50
2019-05-02T15:01:36.105Z,18.33
2019-05-02T15:04:08.349Z,16.23
2019-05-02T15:06:38.436Z,17.03
2019-05-02T15:09:08.117Z,16.23
2019-05-02T15:11:38.271Z,17.90
2019-05-02T15:14:11.203Z,16.80
2019-05-02T15:16:42.300Z,16.27
2019-05-02T15:19:07.127Z,17.10
2019-05-02T15:21:47.158Z,17.53
2019-05-02T15:24:14.429Z,17.53
2019-05-02T15:26:42.876Z,17.60
2019-05-02T15:29:19.140Z,19.13
2019-05-02T15:32:03.259Z,18.30
2019-05-02T15:34:46.201Z,17.17
2019-05-02T15:37:06.232Z,17.97
2019-05-02T15:42:04.803Z,19.17
2019-05-02T15:44:33.259Z,17.07
2019-05-02T15:47:05.140Z,17.73
2019-05-02T15:49:36.573Z,17.40
2019-05-02T15:52:03.776Z,17.93
2019-05-02T15:54:32.307Z,15.93
2019-05-02T15:57:03.195Z,16.03
2019-05-02T15:59:37.358Z,16.40
2019-05-02T16:02:06.412Z,15.70
2019-05-02T16:04:39.182Z,14.70
2019-05-02T16:07:08.502Z,16.13
2019-05-02T16:09:37.009Z,14.47
2019-05-02T16:12:06.295Z,14.50
2019-05-02T16:14:36.139Z,14.73
2019-05-02T16:17:04.913Z,13.77
2019-05-02T16:19:35.030Z,15.67
2019-05-02T16:22:14.020Z,14.63
2019-05-02T16:24:43.903Z,13.73
2019-05-02T16:27:16.557Z,13.20
2019-05-02T16:29:42.903Z,14.10
2019-05-02T16:32:13.371Z,14.23
2019-05-02T16:34:58.379Z,12.80
2019-05-02T16:37:26.995Z,13.03
2019-05-02T16:39:55.507Z,13.33
2019-05-02T16:42:24.081Z,13.73
2019-05-02T16:44:54.827Z,13.73
2019-05-02T16:47:22.847Z,14.37
2019-05-02T16:49:53.427Z,13.97
2019-05-02T16:52:22.212Z,13.73
2019-05-02T16:54:52.802Z,13.77
2019-05-02T16:57:22.139Z,12.10
2019-05-02T16:59:53.883Z,13.43
2019-05-02T17:02:21.847Z,13.43
2019-05-02T17:04:52.100Z,12.97
2019-05-02T17:07:22.650Z,11.97
2019-05-02T17:10:13.699Z,13.00
2019-05-02T17:12:38.838Z,12.63
2019-05-02T17:15:31.241Z,12.00
2019-05-02T17:17:58.109Z,11.93
2019-05-02T17:20:26.529Z,12.73
2019-05-02T17:23:01.803Z,14.10
2019-05-02T17:25:25.185Z,14.17
2019-05-02T17:28:01.076Z,13.90
2019-05-02T17:30:23.909Z,12.67
2019-05-02T17:32:52.368Z,12.77
2019-05-02T17:35:22.105Z,13.50
2019-05-02T17:37:52.385Z,12.40
2019-05-02T17:40:22.449Z,13.10
2019-05-02T17:42:52.570Z,12.13
2019-05-02T17:45:23.739Z,11.97
2019-05-02T17:47:51.424Z,11.33
2019-05-02T17:50:42.064Z,13.20
2019-05-02T17:53:11.612Z,16.07
2019-05-02T17:55:42.678Z,15.07
2019-05-02T17:58:16.381Z,13.23
2019-05-02T18:00:43.002Z,12.47
2019-05-02T18:03:12.423Z,14.30
2019-05-02T18:05:41.990Z,16.13
2019-05-02T18:08:14.492Z,16.27
2019-05-02T18:10:41.921Z,13.43
2019-05-02T18:13:12.144Z,14.10
2019-05-02T18:15:41.669Z,15.33
2019-05-02T18:18:10.357Z,14.30
2019-05-02T18:20:42.777Z,14.73
2019-05-02T18:23:12.296Z,16.40
2019-05-02T18:25:40.835Z,14.87
2019-05-02T18:28:15.938Z,13.37
2019-05-02T18:30:41.603Z,12.40
2019-05-02T18:33:11.849Z,12.07
2019-05-02T18:35:45.295Z,10.03
2019-05-02T18:38:10.224Z,10.57
2019-05-02T18:40:38.717Z,10.83
2019-05-02T18:43:07.723Z,10.33
2019-05-02T18:45:36.255Z,10.17
2019-05-02T18:48:06.659Z,11.43
2019-05-02T18:50:46.149Z,15.40
2019-05-02T18:53:13.619Z,16.67
2019-05-02T18:55:42.285Z,16.43
2019-05-02T18:58:12.741Z,16.13
2019-05-02T19:00:42.098Z,19.30
2019-05-02T19:03:13.313Z,17.93
2019-05-02T19:05:42.209Z,18.17
2019-05-02T19:08:12.083Z,18.10
2019-05-02T19:10:42.506Z,18.53
2019-05-02T19:13:12.699Z,19.30
2019-05-02T19:15:45.185Z,21.23
2019-05-02T19:18:17.853Z,20.30
2019-05-02T19:20:52.519Z,21.93
2019-05-02T19:23:22.497Z,21.73
2019-05-02T19:25:52.652Z,22.23
2019-05-02T19:28:23.149Z,21.47
2019-05-02T19:30:52.061Z,24.50
2019-05-02T19:33:21.614Z,22.30
2019-05-02T19:35:52.563Z,21.17
2019-05-02T19:38:22.601Z,21.43
2019-05-02T19:40:52.016Z,21.50
2019-05-02T19:43:25.228Z,22.97
2019-05-02T19:45:54.149Z,22.93
2019-05-02T19:48:22.819Z,21.90
2019-05-02T19:50:51.795Z,24.03
2019-05-02T19:53:22.631Z,23.17
2019-05-02T19:55:52.005Z,23.87
2019-05-02T19:58:20.884Z,23.10
2019-05-02T20:00:49.577Z,24.07
2019-05-02T20:03:21.536Z,23.27
2019-05-02T20:05:48.766Z,24.37
2019-05-02T20:08:21.391Z,24.40
2019-05-02T20:10:49.419Z,27.05
2019-05-02T20:13:20.334Z,23.37
2019-05-02T20:15:57.168Z,25.17
2019-05-02T20:18:22.918Z,23.40
2019-05-02T20:20:59.309Z,24.97
2019-05-02T20:23:31.416Z,23.60
2019-05-02T20:25:57.935Z,25.50
2019-05-02T20:28:26.438Z,25.27
2019-05-02T20:30:54.846Z,26.10
2019-05-02T20:33:23.273Z,25.47
2019-05-02T20:35:52.883Z,25.83
2019-05-02T20:38:22.063Z,25.07
2019-05-02T20:40:52.265Z,24.47
2019-05-02T20:43:22.681Z,25.43
2019-05-02T20:45:53.098Z,25.27
2019-05-02T20:48:22.714Z,24.43
2019-05-02T20:50:51.947Z,25.93
2019-05-02T20:53:30.275Z,27.30
2019-05-02T20:55:52.423Z,25.27
2019-05-02T20:58:22.044Z,24.13
2019-05-02T21:01:05.117Z,26.33
2019-05-02T21:03:20.857Z,24.60
2019-05-02T21:05:56.812Z,23.53
2019-05-02T21:08:33.844Z,23.17
2019-05-02T21:11:03.995Z,21.20
2019-05-02T21:13:32.823Z,22.37
2019-05-02T21:16:01.871Z,21.87
2019-05-02T21:18:30.346Z,19.73
2019-05-02T21:20:58.862Z,20.80
2019-05-02T21:23:27.293Z,19.83
2019-05-02T21:25:55.765Z,18.70
2019-05-02T21:28:24.310Z,18.20
2019-05-02T21:30:52.790Z,18.17
2019-05-02T21:33:36.102Z,19.87
2019-05-02T21:36:05.207Z,20.30
2019-05-02T21:38:33.786Z,20.30
2019-05-02T21:41:02.273Z,18.30
2019-05-02T21:43:31.696Z,18.50
2019-05-02T21:46:02.247Z,18.23
2019-05-02T21:48:32.505Z,18.60
2019-05-02T21:51:14.626Z,18.23
2019-05-02T21:53:56.048Z,14.93
2019-05-02T21:56:28.522Z,13.27
2019-05-02T21:59:12.757Z,12.93
2019-05-02T22:01:55.302Z,11.80
2019-05-02T22:04:23.810Z,9.90
2019-05-02T22:06:52.462Z,8.63
2019-05-02T22:09:22.988Z,8.23
2019-05-02T22:11:52.018Z,7.07
2019-05-02T22:14:22.293Z,7.90
2019-05-02T22:16:52.977Z,7.33
2019-05-02T22:19:21.480Z,7.00
2019-05-02T22:21:49.909Z,7.13
2019-05-02T22:24:18.346Z,7.87
2019-05-02T22:26:46.880Z,7.37
2019-05-02T22:29:15.328Z,7.77
2019-05-02T22:31:43.813Z,7.27
2019-05-02T22:34:13.786Z,6.83
2019-05-02T22:36:43.256Z,6.90
2019-05-02T22:39:16.837Z,7.27
2019-05-02T22:41:45.240Z,6.60
2019-05-02T22:44:13.714Z,6.77
2019-05-02T22:46:43.745Z,5.67
2019-05-02T22:49:14.746Z,5.97
2019-05-02T22:51:43.743Z,6.13
2019-05-02T22:54:24.038Z,5.83
2019-05-02T22:56:42.774Z,5.87
2019-05-02T22:59:11.166Z,5.90
2019-05-02T23:01:39.584Z,6.17
2019-05-02T23:04:08.093Z,5.40
2019-05-02T23:06:36.585Z,6.13
2019-05-02T23:09:06.924Z,6.83
2019-05-02T23:11:35.520Z,5.70
2019-05-02T23:14:04.778Z,6.70
2019-05-02T23:16:34.613Z,5.53
2019-05-02T23:19:03.287Z,7.00
2019-05-02T23:21:33.484Z,6.57
2019-05-02T23:24:03.557Z,6.57
2019-05-02T23:26:39.423Z,6.83
2019-05-02T23:29:09.651Z,6.33
2019-05-02T23:31:38.128Z,6.60
2019-05-02T23:34:06.616Z,6.07
2019-05-02T23:36:36.206Z,6.00
2019-05-02T23:39:07.682Z,6.90
2019-05-02T23:41:36.128Z,6.53
2019-05-02T23:44:04.865Z,6.37
2019-05-02T23:46:33.334Z,6.20
2019-05-02T23:49:02.139Z,6.10
2019-05-02T23:51:32.036Z,6.77
2019-05-02T23:54:02.136Z,5.53
2019-05-02T23:56:32.442Z,6.83
2019-05-02T23:59:02.786Z,6.80
